sensor_id;sensor_type;location;lat;lon;timestamp;P1;durP1;ratioP1;P2;durP2;ratioP2
47856;SDS011;33618;49.972;8.242;2023-02-28T00:01:17;1.95;;;1.85;;
47856;SDS011;33618;49.972;8.242;2023-02-28T00:03:44;1.92;;;1.80;;
47856;SDS011;33618;49.972;8.242;2023-02-28T00:06:11;2.10;;;1.77;;
47856;SDS011;33618;49.972;8.242;2023-02-28T00:08:38;2.10;;;1.90;;
47856;SDS011;33618;49.972;8.242;2023-02-28T00:11:07;1.90;;;1.80;;
47856;SDS011;33618;49.972;8.242;2023-02-28T00:13:37;1.95;;;1.85;;
47856;SDS011;33618;49.972;8.242;2023-02-28T00:16:10;2.10;;;1.90;;
47856;SDS011;33618;49.972;8.242;2023-02-28T00:18:39;2.35;;;2.05;;
47856;SDS011;33618;49.972;8.242;2023-02-28T00:21:07;2.22;;;2.03;;
47856;SDS011;33618;49.972;8.242;2023-02-28T00:23:35;2.85;;;2.10;;
47856;SDS011;33618;49.972;8.242;2023-02-28T00:26:02;2.80;;;2.10;;
47856;SDS011;33618;49.972;8.242;2023-02-28T00:28:34;2.53;;;2.33;;
47856;SDS011;33618;49.972;8.242;2023-02-28T00:31:02;2.63;;;2.42;;
47856;SDS011;33618;49.972;8.242;2023-02-28T00:33:55;2.40;;;2.20;;
47856;SDS011;33618;49.972;8.242;2023-02-28T00:36:23;2.47;;;2.17;;
47856;SDS011;33618;49.972;8.242;2023-02-28T00:38:51;6.15;;;2.33;;
47856;SDS011;33618;49.972;8.242;2023-02-28T00:41:19;2.25;;;2.05;;
47856;SDS011;33618;49.972;8.242;2023-02-28T00:43:48;3.00;;;2.33;;
47856;SDS011;33618;49.972;8.242;2023-02-28T00:46:15;2.65;;;2.45;;
47856;SDS011;33618;49.972;8.242;2023-02-28T00:48:43;3.80;;;2.47;;
47856;SDS011;33618;49.972;8.242;2023-02-28T00:51:10;3.90;;;2.20;;
47856;SDS011;33618;49.972;8.242;2023-02-28T00:53:37;2.63;;;2.38;;
47856;SDS011;33618;49.972;8.242;2023-02-28T00:56:05;2.83;;;2.40;;
47856;SDS011;33618;49.972;8.242;2023-02-28T00:58:32;3.22;;;2.78;;
47856;SDS011;33618;49.972;8.242;2023-02-28T01:00:59;2.88;;;2.60;;
47856;SDS011;33618;49.972;8.242;2023-02-28T01:03:37;3.03;;;2.67;;
47856;SDS011;33618;49.972;8.242;2023-02-28T01:06:06;2.63;;;2.42;;
47856;SDS011;33618;49.972;8.242;2023-02-28T01:08:34;2.90;;;2.70;;
47856;SDS011;33618;49.972;8.242;2023-02-28T01:11:07;4.05;;;2.83;;
47856;SDS011;33618;49.972;8.242;2023-02-28T01:13:36;3.55;;;3.03;;
47856;SDS011;33618;49.972;8.242;2023-02-28T01:16:03;3.03;;;2.78;;
47856;SDS011;33618;49.972;8.242;2023-02-28T01:18:30;3.03;;;2.72;;
47856;SDS011;33618;49.972;8.242;2023-02-28T01:20:57;3.25;;;2.80;;
47856;SDS011;33618;49.972;8.242;2023-02-28T01:23:24;4.03;;;2.92;;
47856;SDS011;33618;49.972;8.242;2023-02-28T01:25:51;3.88;;;2.88;;
47856;SDS011;33618;49.972;8.242;2023-02-28T01:28:19;3.17;;;2.70;;
47856;SDS011;33618;49.972;8.242;2023-02-28T01:30:49;3.08;;;2.88;;
47856;SDS011;33618;49.972;8.242;2023-02-28T01:33:17;5.88;;;3.33;;
47856;SDS011;33618;49.972;8.242;2023-02-28T01:35:44;4.15;;;3.30;;
47856;SDS011;33618;49.972;8.242;2023-02-28T01:38:11;4.43;;;3.20;;
47856;SDS011;33618;49.972;8.242;2023-02-28T01:40:48;4.30;;;3.47;;
47856;SDS011;33618;49.972;8.242;2023-02-28T01:43:19;4.57;;;3.58;;
47856;SDS011;33618;49.972;8.242;2023-02-28T01:45:47;5.75;;;3.40;;
47856;SDS011;33618;49.972;8.242;2023-02-28T01:48:14;3.80;;;3.50;;
47856;SDS011;33618;49.972;8.242;2023-02-28T01:50:43;5.13;;;3.70;;
47856;SDS011;33618;49.972;8.242;2023-02-28T01:53:14;4.30;;;3.50;;
47856;SDS011;33618;49.972;8.242;2023-02-28T01:55:47;5.13;;;3.80;;
47856;SDS011;33618;49.972;8.242;2023-02-28T01:58:18;4.50;;;3.70;;
47856;SDS011;33618;49.972;8.242;2023-02-28T02:00:45;4.00;;;3.60;;
47856;SDS011;33618;49.972;8.242;2023-02-28T02:03:13;5.38;;;3.45;;
47856;SDS011;33618;49.972;8.242;2023-02-28T02:05:45;4.45;;;3.90;;
47856;SDS011;33618;49.972;8.242;2023-02-28T02:08:21;4.28;;;3.65;;
47856;SDS011;33618;49.972;8.242;2023-02-28T02:10:50;6.57;;;4.03;;
47856;SDS011;33618;49.972;8.242;2023-02-28T02:41:38;6.63;;;4.50;;
47856;SDS011;33618;49.972;8.242;2023-02-28T02:44:15;9.20;;;4.30;;
47856;SDS011;33618;49.972;8.242;2023-02-28T02:46:48;4.60;;;4.20;;
47856;SDS011;33618;49.972;8.242;2023-02-28T02:49:24;4.25;;;3.85;;
47856;SDS011;33618;49.972;8.242;2023-02-28T02:51:57;6.22;;;4.28;;
47856;SDS011;33618;49.972;8.242;2023-02-28T02:54:30;6.68;;;4.38;;
47856;SDS011;33618;49.972;8.242;2023-02-28T02:57:04;5.18;;;4.28;;
47856;SDS011;33618;49.972;8.242;2023-02-28T02:59:35;5.28;;;4.18;;
47856;SDS011;33618;49.972;8.242;2023-02-28T03:02:06;4.40;;;4.00;;
47856;SDS011;33618;49.972;8.242;2023-02-28T03:04:38;4.90;;;4.40;;
47856;SDS011;33618;49.972;8.242;2023-02-28T03:07:09;4.65;;;4.15;;
47856;SDS011;33618;49.972;8.242;2023-02-28T03:09:36;5.10;;;4.05;;
47856;SDS011;33618;49.972;8.242;2023-02-28T03:12:04;4.93;;;4.15;;
47856;SDS011;33618;49.972;8.242;2023-02-28T03:20:12;4.75;;;3.90;;
47856;SDS011;33618;49.972;8.242;2023-02-28T03:22:55;7.50;;;3.63;;
47856;SDS011;33618;49.972;8.242;2023-02-28T03:30:45;3.95;;;3.50;;
47856;SDS011;33618;49.972;8.242;2023-02-28T03:33:21;4.45;;;3.58;;
47856;SDS011;33618;49.972;8.242;2023-02-28T03:35:54;4.78;;;4.03;;
47856;SDS011;33618;49.972;8.242;2023-02-28T03:38:29;4.97;;;3.97;;
47856;SDS011;33618;49.972;8.242;2023-02-28T03:43:36;4.53;;;3.65;;
47856;SDS011;33618;49.972;8.242;2023-02-28T03:46:09;3.78;;;3.47;;
47856;SDS011;33618;49.972;8.242;2023-02-28T03:48:40;3.97;;;3.40;;
47856;SDS011;33618;49.972;8.242;2023-02-28T03:51:14;5.97;;;3.60;;
47856;SDS011;33618;49.972;8.242;2023-02-28T03:53:44;3.50;;;3.20;;
47856;SDS011;33618;49.972;8.242;2023-02-28T03:56:22;5.38;;;3.60;;
47856;SDS011;33618;49.972;8.242;2023-02-28T03:59:16;3.65;;;3.35;;
47856;SDS011;33618;49.972;8.242;2023-02-28T04:01:51;6.28;;;3.45;;
47856;SDS011;33618;49.972;8.242;2023-02-28T04:04:18;5.13;;;3.50;;
47856;SDS011;33618;49.972;8.242;2023-02-28T04:06:45;3.90;;;3.50;;
47856;SDS011;33618;49.972;8.242;2023-02-28T04:09:16;4.57;;;3.40;;
47856;SDS011;33618;49.972;8.242;2023-02-28T04:14:18;3.40;;;3.10;;
47856;SDS011;33618;49.972;8.242;2023-02-28T04:16:45;4.95;;;4.15;;
47856;SDS011;33618;49.972;8.242;2023-02-28T04:19:12;4.03;;;3.50;;
47856;SDS011;33618;49.972;8.242;2023-02-28T04:21:42;4.95;;;3.50;;
47856;SDS011;33618;49.972;8.242;2023-02-28T04:24:11;4.13;;;3.28;;
47856;SDS011;33618;49.972;8.242;2023-02-28T04:26:41;3.38;;;3.08;;
47856;SDS011;33618;49.972;8.242;2023-02-28T04:29:11;4.38;;;3.20;;
47856;SDS011;33618;49.972;8.242;2023-02-28T04:31:39;4.50;;;3.53;;
47856;SDS011;33618;49.972;8.242;2023-02-28T04:34:07;4.13;;;3.50;;
47856;SDS011;33618;49.972;8.242;2023-02-28T04:36:34;3.95;;;3.15;;
47856;SDS011;33618;49.972;8.242;2023-02-28T04:39:01;5.75;;;3.58;;
47856;SDS011;33618;49.972;8.242;2023-02-28T04:41:28;4.28;;;3.38;;
47856;SDS011;33618;49.972;8.242;2023-02-28T04:43:58;5.63;;;3.28;;
47856;SDS011;33618;49.972;8.242;2023-02-28T04:46:25;3.97;;;3.58;;
47856;SDS011;33618;49.972;8.242;2023-02-28T04:48:52;4.15;;;3.28;;
47856;SDS011;33618;49.972;8.242;2023-02-28T04:51:20;3.78;;;3.40;;
47856;SDS011;33618;49.972;8.242;2023-02-28T04:53:48;4.10;;;3.50;;
47856;SDS011;33618;49.972;8.242;2023-02-28T04:56:16;5.45;;;3.30;;
47856;SDS011;33618;49.972;8.242;2023-02-28T04:58:44;4.38;;;3.97;;
47856;SDS011;33618;49.972;8.242;2023-02-28T05:01:22;4.40;;;3.38;;
47856;SDS011;33618;49.972;8.242;2023-02-28T05:03:55;3.35;;;3.03;;
47856;SDS011;33618;49.972;8.242;2023-02-28T05:06:24;3.15;;;2.92;;
47856;SDS011;33618;49.972;8.242;2023-02-28T05:08:53;3.58;;;3.25;;
47856;SDS011;33618;49.972;8.242;2023-02-28T05:11:24;3.33;;;3.03;;
47856;SDS011;33618;49.972;8.242;2023-02-28T05:13:53;3.10;;;2.88;;
47856;SDS011;33618;49.972;8.242;2023-02-28T05:16:20;4.28;;;3.20;;
47856;SDS011;33618;49.972;8.242;2023-02-28T05:18:47;3.28;;;2.97;;
47856;SDS011;33618;49.972;8.242;2023-02-28T05:23:57;3.65;;;2.90;;
47856;SDS011;33618;49.972;8.242;2023-02-28T05:26:26;5.22;;;2.90;;
47856;SDS011;33618;49.972;8.242;2023-02-28T05:28:54;3.10;;;2.80;;
47856;SDS011;33618;49.972;8.242;2023-02-28T05:31:21;6.45;;;2.88;;
47856;SDS011;33618;49.972;8.242;2023-02-28T05:33:48;3.25;;;2.95;;
47856;SDS011;33618;49.972;8.242;2023-02-28T05:36:15;3.08;;;2.75;;
47856;SDS011;33618;49.972;8.242;2023-02-28T05:38:42;4.03;;;3.10;;
47856;SDS011;33618;49.972;8.242;2023-02-28T05:41:11;3.78;;;3.00;;
47856;SDS011;33618;49.972;8.242;2023-02-28T05:43:38;4.18;;;2.85;;
47856;SDS011;33618;49.972;8.242;2023-02-28T05:46:06;3.20;;;2.90;;
47856;SDS011;33618;49.972;8.242;2023-02-28T05:48:34;3.30;;;2.97;;
47856;SDS011;33618;49.972;8.242;2023-02-28T05:51:03;2.97;;;2.63;;
47856;SDS011;33618;49.972;8.242;2023-02-28T05:53:31;4.28;;;3.10;;
47856;SDS011;33618;49.972;8.242;2023-02-28T05:55:59;3.08;;;2.80;;
47856;SDS011;33618;49.972;8.242;2023-02-28T05:58:26;3.80;;;2.63;;
47856;SDS011;33618;49.972;8.242;2023-02-28T06:01:00;3.20;;;2.55;;
47856;SDS011;33618;49.972;8.242;2023-02-28T06:03:45;3.33;;;3.03;;
47856;SDS011;33618;49.972;8.242;2023-02-28T06:06:12;3.63;;;3.10;;
47856;SDS011;33618;49.972;8.242;2023-02-28T06:08:39;3.75;;;2.60;;
47856;SDS011;33618;49.972;8.242;2023-02-28T06:11:06;3.50;;;2.80;;
47856;SDS011;33618;49.972;8.242;2023-02-28T06:13:33;3.17;;;2.72;;
47856;SDS011;33618;49.972;8.242;2023-02-28T06:16:01;2.90;;;2.38;;
47856;SDS011;33618;49.972;8.242;2023-02-28T06:18:28;2.95;;;2.53;;
47856;SDS011;33618;49.972;8.242;2023-02-28T06:20:55;3.13;;;2.72;;
47856;SDS011;33618;49.972;8.242;2023-02-28T06:23:22;4.25;;;3.10;;
47856;SDS011;33618;49.972;8.242;2023-02-28T06:25:49;3.47;;;2.80;;
47856;SDS011;33618;49.972;8.242;2023-02-28T06:28:16;2.95;;;2.75;;
47856;SDS011;33618;49.972;8.242;2023-02-28T06:30:43;7.00;;;2.92;;
47856;SDS011;33618;49.972;8.242;2023-02-28T06:33:12;4.13;;;2.65;;
47856;SDS011;33618;49.972;8.242;2023-02-28T06:35:39;3.83;;;2.72;;
47856;SDS011;33618;49.972;8.242;2023-02-28T06:38:06;3.78;;;2.80;;
47856;SDS011;33618;49.972;8.242;2023-02-28T06:40:33;3.47;;;2.72;;
47856;SDS011;33618;49.972;8.242;2023-02-28T06:43:02;4.60;;;3.10;;
47856;SDS011;33618;49.972;8.242;2023-02-28T06:45:29;5.78;;;3.05;;
47856;SDS011;33618;49.972;8.242;2023-02-28T06:47:56;2.78;;;2.53;;
47856;SDS011;33618;49.972;8.242;2023-02-28T06:50:24;3.72;;;2.70;;
47856;SDS011;33618;49.972;8.242;2023-02-28T06:52:51;5.72;;;2.92;;
47856;SDS011;33618;49.972;8.242;2023-02-28T06:55:20;3.88;;;3.13;;
47856;SDS011;33618;49.972;8.242;2023-02-28T06:57:47;3.67;;;2.55;;
47856;SDS011;33618;49.972;8.242;2023-02-28T07:00:16;3.20;;;2.90;;
47856;SDS011;33618;49.972;8.242;2023-02-28T07:02:44;3.40;;;2.63;;
47856;SDS011;33618;49.972;8.242;2023-02-28T07:05:11;4.57;;;3.03;;
47856;SDS011;33618;49.972;8.242;2023-02-28T07:07:38;4.90;;;2.85;;
47856;SDS011;33618;49.972;8.242;2023-02-28T07:10:10;3.38;;;2.78;;
47856;SDS011;33618;49.972;8.242;2023-02-28T07:12:37;3.20;;;2.58;;
47856;SDS011;33618;49.972;8.242;2023-02-28T07:15:04;3.00;;;2.70;;
47856;SDS011;33618;49.972;8.242;2023-02-28T07:17:32;4.80;;;2.83;;
47856;SDS011;33618;49.972;8.242;2023-02-28T07:19:59;3.08;;;2.65;;
47856;SDS011;33618;49.972;8.242;2023-02-28T07:22:26;3.80;;;2.90;;
47856;SDS011;33618;49.972;8.242;2023-02-28T07:24:54;4.35;;;2.78;;
47856;SDS011;33618;49.972;8.242;2023-02-28T07:27:21;3.28;;;2.83;;
47856;SDS011;33618;49.972;8.242;2023-02-28T07:29:52;4.15;;;3.33;;
47856;SDS011;33618;49.972;8.242;2023-02-28T07:32:19;4.47;;;2.78;;
47856;SDS011;33618;49.972;8.242;2023-02-28T07:34:47;3.03;;;2.70;;
47856;SDS011;33618;49.972;8.242;2023-02-28T07:37:14;3.95;;;2.90;;
47856;SDS011;33618;49.972;8.242;2023-02-28T07:39:41;5.18;;;3.67;;
47856;SDS011;33618;49.972;8.242;2023-02-28T07:42:08;6.55;;;3.63;;
47856;SDS011;33618;49.972;8.242;2023-02-28T07:44:40;4.38;;;3.25;;
47856;SDS011;33618;49.972;8.242;2023-02-28T07:47:09;3.53;;;3.20;;
47856;SDS011;33618;49.972;8.242;2023-02-28T07:49:36;4.18;;;3.20;;
47856;SDS011;33618;49.972;8.242;2023-02-28T07:52:05;4.38;;;3.20;;
47856;SDS011;33618;49.972;8.242;2023-02-28T07:54:33;4.47;;;3.22;;
47856;SDS011;33618;49.972;8.242;2023-02-28T07:57:00;3.72;;;3.03;;
47856;SDS011;33618;49.972;8.242;2023-02-28T07:59:27;4.28;;;3.13;;
47856;SDS011;33618;49.972;8.242;2023-02-28T08:01:57;7.82;;;3.40;;
47856;SDS011;33618;49.972;8.242;2023-02-28T08:04:25;3.65;;;3.15;;
47856;SDS011;33618;49.972;8.242;2023-02-28T08:06:52;5.03;;;3.42;;
47856;SDS011;33618;49.972;8.242;2023-02-28T08:09:20;4.15;;;3.00;;
47856;SDS011;33618;49.972;8.242;2023-02-28T08:11:46;4.72;;;3.60;;
47856;SDS011;33618;49.972;8.242;2023-02-28T08:14:13;5.28;;;3.33;;
47856;SDS011;33618;49.972;8.242;2023-02-28T08:16:41;4.63;;;3.50;;
47856;SDS011;33618;49.972;8.242;2023-02-28T08:19:09;7.03;;;3.78;;
47856;SDS011;33618;49.972;8.242;2023-02-28T08:21:36;7.25;;;4.38;;
47856;SDS011;33618;49.972;8.242;2023-02-28T08:24:03;4.15;;;3.60;;
47856;SDS011;33618;49.972;8.242;2023-02-28T08:26:30;4.32;;;3.38;;
47856;SDS011;33618;49.972;8.242;2023-02-28T08:28:57;5.18;;;4.05;;
47856;SDS011;33618;49.972;8.242;2023-02-28T08:31:26;4.88;;;3.25;;
47856;SDS011;33618;49.972;8.242;2023-02-28T08:33:54;3.58;;;3.22;;
47856;SDS011;33618;49.972;8.242;2023-02-28T08:36:25;5.50;;;3.58;;
47856;SDS011;33618;49.972;8.242;2023-02-28T08:38:56;4.50;;;3.45;;
47856;SDS011;33618;49.972;8.242;2023-02-28T08:41:23;5.65;;;3.33;;
47856;SDS011;33618;49.972;8.242;2023-02-28T08:43:50;3.90;;;3.50;;
47856;SDS011;33618;49.972;8.242;2023-02-28T08:46:17;6.38;;;3.60;;
47856;SDS011;33618;49.972;8.242;2023-02-28T08:48:44;4.63;;;3.25;;
47856;SDS011;33618;49.972;8.242;2023-02-28T08:51:16;3.67;;;3.10;;
47856;SDS011;33618;49.972;8.242;2023-02-28T08:53:45;3.55;;;3.13;;
47856;SDS011;33618;49.972;8.242;2023-02-28T08:56:12;3.97;;;3.17;;
47856;SDS011;33618;49.972;8.242;2023-02-28T08:58:43;3.85;;;3.28;;
47856;SDS011;33618;49.972;8.242;2023-02-28T09:01:11;3.50;;;3.20;;
47856;SDS011;33618;49.972;8.242;2023-02-28T09:03:40;3.92;;;3.20;;
47856;SDS011;33618;49.972;8.242;2023-02-28T09:06:09;3.55;;;3.25;;
47856;SDS011;33618;49.972;8.242;2023-02-28T09:08:37;5.22;;;3.08;;
47856;SDS011;33618;49.972;8.242;2023-02-28T09:32:22;3.50;;;3.10;;
47856;SDS011;33618;49.972;8.242;2023-02-28T09:34:50;3.70;;;2.92;;
47856;SDS011;33618;49.972;8.242;2023-02-28T09:37:17;5.85;;;3.20;;
47856;SDS011;33618;49.972;8.242;2023-02-28T09:39:44;3.58;;;3.15;;
47856;SDS011;33618;49.972;8.242;2023-02-28T09:42:13;4.53;;;2.97;;
47856;SDS011;33618;49.972;8.242;2023-02-28T09:44:49;4.95;;;2.90;;
47856;SDS011;33618;49.972;8.242;2023-02-28T09:50:03;3.42;;;2.95;;
47856;SDS011;33618;49.972;8.242;2023-02-28T09:52:43;2.90;;;2.63;;
47856;SDS011;33618;49.972;8.242;2023-02-28T09:55:27;3.63;;;2.60;;
47856;SDS011;33618;49.972;8.242;2023-02-28T09:58:18;2.80;;;2.60;;
47856;SDS011;33618;49.972;8.242;2023-02-28T10:00:54;3.45;;;2.90;;
47856;SDS011;33618;49.972;8.242;2023-02-28T10:08:32;3.33;;;3.00;;
47856;SDS011;33618;49.972;8.242;2023-02-28T10:11:12;3.08;;;2.75;;
47856;SDS011;33618;49.972;8.242;2023-02-28T10:13:49;3.25;;;2.85;;
47856;SDS011;33618;49.972;8.242;2023-02-28T10:16:30;3.10;;;2.80;;
47856;SDS011;33618;49.972;8.242;2023-02-28T10:19:03;4.45;;;3.08;;
47856;SDS011;33618;49.972;8.242;2023-02-28T10:21:36;3.50;;;2.95;;
47856;SDS011;33618;49.972;8.242;2023-02-28T10:26:56;3.00;;;2.70;;
47856;SDS011;33618;49.972;8.242;2023-02-28T10:29:28;3.72;;;2.70;;
47856;SDS011;33618;49.972;8.242;2023-02-28T10:31:59;3.80;;;2.92;;
47856;SDS011;33618;49.972;8.242;2023-02-28T10:34:29;4.22;;;3.05;;
47856;SDS011;33618;49.972;8.242;2023-02-28T10:36:56;5.05;;;3.25;;
47856;SDS011;33618;49.972;8.242;2023-02-28T10:39:35;3.90;;;2.90;;
47856;SDS011;33618;49.972;8.242;2023-02-28T10:42:04;5.13;;;2.97;;
47856;SDS011;33618;49.972;8.242;2023-02-28T10:44:31;3.38;;;3.00;;
47856;SDS011;33618;49.972;8.242;2023-02-28T10:46:58;3.42;;;3.13;;
47856;SDS011;33618;49.972;8.242;2023-02-28T10:49:26;3.50;;;3.20;;
47856;SDS011;33618;49.972;8.242;2023-02-28T10:51:56;3.28;;;2.97;;
47856;SDS011;33618;49.972;8.242;2023-02-28T10:54:35;4.20;;;3.03;;
47856;SDS011;33618;49.972;8.242;2023-02-28T10:57:18;3.60;;;3.15;;
47856;SDS011;33618;49.972;8.242;2023-02-28T11:00:06;4.65;;;2.97;;
47856;SDS011;33618;49.972;8.242;2023-02-28T11:02:47;3.80;;;3.33;;
47856;SDS011;33618;49.972;8.242;2023-02-28T11:05:25;3.58;;;3.28;;
47856;SDS011;33618;49.972;8.242;2023-02-28T11:08:10;4.53;;;3.28;;
47856;SDS011;33618;49.972;8.242;2023-02-28T11:10:43;4.10;;;3.50;;
47856;SDS011;33618;49.972;8.242;2023-02-28T11:13:19;4.13;;;3.20;;
47856;SDS011;33618;49.972;8.242;2023-02-28T11:15:57;6.53;;;3.65;;
47856;SDS011;33618;49.972;8.242;2023-02-28T11:21:29;3.90;;;3.15;;
47856;SDS011;33618;49.972;8.242;2023-02-28T11:26:46;3.70;;;3.30;;
47856;SDS011;33618;49.972;8.242;2023-02-28T11:29:18;13.77;;;3.15;;
47856;SDS011;33618;49.972;8.242;2023-02-28T11:32:00;4.97;;;3.13;;
47856;SDS011;33618;49.972;8.242;2023-02-28T11:34:35;3.63;;;3.08;;
47856;SDS011;33618;49.972;8.242;2023-02-28T11:37:04;5.00;;;3.60;;
47856;SDS011;33618;49.972;8.242;2023-02-28T11:39:36;3.55;;;3.25;;
47856;SDS011;33618;49.972;8.242;2023-02-28T11:44:44;4.03;;;3.10;;
47856;SDS011;33618;49.972;8.242;2023-02-28T11:52:36;4.43;;;3.50;;
47856;SDS011;33618;49.972;8.242;2023-02-28T12:00:36;3.60;;;3.30;;
47856;SDS011;33618;49.972;8.242;2023-02-28T12:03:26;4.10;;;3.28;;
47856;SDS011;33618;49.972;8.242;2023-02-28T12:06:22;3.55;;;3.17;;
47856;SDS011;33618;49.972;8.242;2023-02-28T12:11:58;4.18;;;3.50;;
47856;SDS011;33618;49.972;8.242;2023-02-28T12:20:05;3.92;;;3.53;;
47856;SDS011;33618;49.972;8.242;2023-02-28T12:28:39;3.50;;;3.20;;
47856;SDS011;33618;49.972;8.242;2023-02-28T12:31:18;3.95;;;3.50;;
47856;SDS011;33618;49.972;8.242;2023-02-28T12:33:52;4.22;;;3.50;;
47856;SDS011;33618;49.972;8.242;2023-02-28T12:36:22;4.18;;;3.78;;
47856;SDS011;33618;49.972;8.242;2023-02-28T12:41:31;4.63;;;3.80;;
47856;SDS011;33618;49.972;8.242;2023-02-28T12:44:12;4.18;;;3.80;;
47856;SDS011;33618;49.972;8.242;2023-02-28T12:46:45;4.35;;;3.90;;
47856;SDS011;33618;49.972;8.242;2023-02-28T12:51:48;4.28;;;3.75;;
47856;SDS011;33618;49.972;8.242;2023-02-28T12:54:19;4.18;;;3.78;;
47856;SDS011;33618;49.972;8.242;2023-02-28T12:57:27;3.83;;;3.53;;
47856;SDS011;33618;49.972;8.242;2023-02-28T13:00:10;4.60;;;4.00;;
47856;SDS011;33618;49.972;8.242;2023-02-28T13:07:58;4.68;;;4.10;;
47856;SDS011;33618;49.972;8.242;2023-02-28T13:10:48;4.32;;;3.88;;
47856;SDS011;33618;49.972;8.242;2023-02-28T13:13:24;6.28;;;3.85;;
47856;SDS011;33618;49.972;8.242;2023-02-28T13:21:22;14.05;;;3.97;;
47856;SDS011;33618;49.972;8.242;2023-02-28T13:28:58;4.40;;;4.00;;
47856;SDS011;33618;49.972;8.242;2023-02-28T13:39:55;5.03;;;3.80;;
47856;SDS011;33618;49.972;8.242;2023-02-28T13:43:06;4.65;;;4.22;;
47856;SDS011;33618;49.972;8.242;2023-02-28T13:45:35;4.22;;;3.85;;
47856;SDS011;33618;49.972;8.242;2023-02-28T13:48:16;4.57;;;4.18;;
47856;SDS011;33618;49.972;8.242;2023-02-28T13:50:43;4.93;;;4.43;;
47856;SDS011;33618;49.972;8.242;2023-02-28T14:01:28;4.97;;;4.47;;
47856;SDS011;33618;49.972;8.242;2023-02-28T14:06:52;5.95;;;4.47;;
47856;SDS011;33618;49.972;8.242;2023-02-28T14:09:25;5.47;;;4.65;;
47856;SDS011;33618;49.972;8.242;2023-02-28T14:17:55;4.90;;;4.45;;
47856;SDS011;33618;49.972;8.242;2023-02-28T14:20:22;6.88;;;4.07;;
47856;SDS011;33618;49.972;8.242;2023-02-28T14:23:06;5.45;;;4.50;;
47856;SDS011;33618;49.972;8.242;2023-02-28T14:25:39;4.80;;;4.40;;
47856;SDS011;33618;49.972;8.242;2023-02-28T14:41:16;5.60;;;4.40;;
47856;SDS011;33618;49.972;8.242;2023-02-28T14:43:51;4.83;;;4.43;;
47856;SDS011;33618;49.972;8.242;2023-02-28T14:46:25;6.82;;;4.68;;
47856;SDS011;33618;49.972;8.242;2023-02-28T14:49:16;4.80;;;4.40;;
47856;SDS011;33618;49.972;8.242;2023-02-28T14:51:44;6.25;;;4.68;;
47856;SDS011;33618;49.972;8.242;2023-02-28T14:54:13;5.63;;;4.45;;
47856;SDS011;33618;49.972;8.242;2023-02-28T14:56:42;6.07;;;4.40;;
47856;SDS011;33618;49.972;8.242;2023-02-28T14:59:29;5.95;;;4.18;;
47856;SDS011;33618;49.972;8.242;2023-02-28T15:04:53;5.30;;;4.72;;
47856;SDS011;33618;49.972;8.242;2023-02-28T15:07:29;5.25;;;4.75;;
47856;SDS011;33618;49.972;8.242;2023-02-28T15:12:53;5.30;;;4.90;;
47856;SDS011;33618;49.972;8.242;2023-02-28T15:15:27;5.60;;;5.03;;
47856;SDS011;33618;49.972;8.242;2023-02-28T15:21:16;5.85;;;4.55;;
47856;SDS011;33618;49.972;8.242;2023-02-28T15:24:12;6.88;;;4.70;;
47856;SDS011;33618;49.972;8.242;2023-02-28T15:26:59;5.38;;;4.88;;
47856;SDS011;33618;49.972;8.242;2023-02-28T15:29:32;4.93;;;4.45;;
47856;SDS011;33618;49.972;8.242;2023-02-28T15:32:16;5.50;;;5.00;;
47856;SDS011;33618;49.972;8.242;2023-02-28T15:34:50;5.65;;;4.68;;
47856;SDS011;33618;49.972;8.242;2023-02-28T15:37:28;5.97;;;4.65;;
47856;SDS011;33618;49.972;8.242;2023-02-28T15:40:04;5.35;;;4.80;;
47856;SDS011;33618;49.972;8.242;2023-02-28T15:42:32;5.30;;;4.68;;
47856;SDS011;33618;49.972;8.242;2023-02-28T15:44:59;4.68;;;4.22;;
47856;SDS011;33618;49.972;8.242;2023-02-28T15:47:27;5.30;;;4.72;;
47856;SDS011;33618;49.972;8.242;2023-02-28T15:49:59;5.15;;;4.65;;
47856;SDS011;33618;49.972;8.242;2023-02-28T15:52:47;4.65;;;4.25;;
47856;SDS011;33618;49.972;8.242;2023-02-28T15:55:19;4.90;;;4.50;;
47856;SDS011;33618;49.972;8.242;2023-02-28T15:57:51;4.85;;;4.40;;
47856;SDS011;33618;49.972;8.242;2023-02-28T16:00:22;5.30;;;4.80;;
47856;SDS011;33618;49.972;8.242;2023-02-28T16:02:50;5.60;;;4.85;;
47856;SDS011;33618;49.972;8.242;2023-02-28T16:05:19;5.03;;;4.53;;
47856;SDS011;33618;49.972;8.242;2023-02-28T16:07:57;5.22;;;4.72;;
47856;SDS011;33618;49.972;8.242;2023-02-28T16:10:28;5.38;;;4.82;;
47856;SDS011;33618;49.972;8.242;2023-02-28T16:12:56;5.47;;;4.80;;
47856;SDS011;33618;49.972;8.242;2023-02-28T16:15:28;4.97;;;4.57;;
47856;SDS011;33618;49.972;8.242;2023-02-28T16:18:08;5.10;;;4.60;;
47856;SDS011;33618;49.972;8.242;2023-02-28T16:20:37;6.97;;;4.80;;
47856;SDS011;33618;49.972;8.242;2023-02-28T16:23:04;7.22;;;4.68;;
47856;SDS011;33618;49.972;8.242;2023-02-28T16:25:33;5.25;;;4.28;;
47856;SDS011;33618;49.972;8.242;2023-02-28T16:28:39;5.40;;;4.72;;
47856;SDS011;33618;49.972;8.242;2023-02-28T16:33:31;5.05;;;4.55;;
47856;SDS011;33618;49.972;8.242;2023-02-28T16:36:01;5.68;;;5.00;;
47856;SDS011;33618;49.972;8.242;2023-02-28T16:38:28;6.90;;;4.50;;
47856;SDS011;33618;49.972;8.242;2023-02-28T16:40:55;7.57;;;4.60;;
47856;SDS011;33618;49.972;8.242;2023-02-28T16:43:25;6.78;;;4.85;;
47856;SDS011;33618;49.972;8.242;2023-02-28T16:56:25;6.57;;;4.47;;
47856;SDS011;33618;49.972;8.242;2023-02-28T16:58:52;5.53;;;4.63;;
47856;SDS011;33618;49.972;8.242;2023-02-28T17:01:25;7.05;;;4.82;;
47856;SDS011;33618;49.972;8.242;2023-02-28T17:03:54;5.45;;;4.88;;
47856;SDS011;33618;49.972;8.242;2023-02-28T17:06:22;5.95;;;4.88;;
47856;SDS011;33618;49.972;8.242;2023-02-28T17:08:53;6.43;;;4.47;;
47856;SDS011;33618;49.972;8.242;2023-02-28T17:11:21;5.68;;;4.50;;
47856;SDS011;33618;49.972;8.242;2023-02-28T17:13:49;7.78;;;4.90;;
47856;SDS011;33618;49.972;8.242;2023-02-28T17:16:21;6.97;;;4.45;;
47856;SDS011;33618;49.972;8.242;2023-02-28T17:18:54;7.07;;;5.28;;
47856;SDS011;33618;49.972;8.242;2023-02-28T17:21:24;5.85;;;4.88;;
47856;SDS011;33618;49.972;8.242;2023-02-28T17:23:51;5.00;;;4.38;;
47856;SDS011;33618;49.972;8.242;2023-02-28T17:26:18;6.28;;;4.97;;
47856;SDS011;33618;49.972;8.242;2023-02-28T17:28:48;8.13;;;5.05;;
47856;SDS011;33618;49.972;8.242;2023-02-28T17:31:15;7.40;;;5.35;;
47856;SDS011;33618;49.972;8.242;2023-02-28T17:33:42;8.13;;;4.80;;
47856;SDS011;33618;49.972;8.242;2023-02-28T17:36:13;5.72;;;4.90;;
47856;SDS011;33618;49.972;8.242;2023-02-28T17:38:41;6.30;;;4.75;;
47856;SDS011;33618;49.972;8.242;2023-02-28T17:41:09;6.05;;;5.00;;
47856;SDS011;33618;49.972;8.242;2023-02-28T17:43:37;5.28;;;4.38;;
47856;SDS011;33618;49.972;8.242;2023-02-28T17:46:05;6.53;;;4.82;;
47856;SDS011;33618;49.972;8.242;2023-02-28T17:48:33;7.68;;;4.95;;
47856;SDS011;33618;49.972;8.242;2023-02-28T17:50:59;7.35;;;5.28;;
47856;SDS011;33618;49.972;8.242;2023-02-28T17:53:26;6.85;;;4.88;;
47856;SDS011;33618;49.972;8.242;2023-02-28T17:55:53;8.00;;;4.70;;
47856;SDS011;33618;49.972;8.242;2023-02-28T17:58:20;8.23;;;5.18;;
47856;SDS011;33618;49.972;8.242;2023-02-28T18:00:47;6.47;;;4.85;;
47856;SDS011;33618;49.972;8.242;2023-02-28T18:03:20;9.80;;;5.18;;
47856;SDS011;33618;49.972;8.242;2023-02-28T18:05:47;7.13;;;5.13;;
47856;SDS011;33618;49.972;8.242;2023-02-28T18:08:15;7.28;;;4.88;;
47856;SDS011;33618;49.972;8.242;2023-02-28T18:10:42;8.80;;;5.20;;
47856;SDS011;33618;49.972;8.242;2023-02-28T18:13:09;7.25;;;5.20;;
47856;SDS011;33618;49.972;8.242;2023-02-28T18:15:38;8.57;;;5.10;;
47856;SDS011;33618;49.972;8.242;2023-02-28T18:18:05;7.18;;;5.22;;
47856;SDS011;33618;49.972;8.242;2023-02-28T18:20:33;6.95;;;4.97;;
47856;SDS011;33618;49.972;8.242;2023-02-28T18:23:01;8.52;;;5.28;;
47856;SDS011;33618;49.972;8.242;2023-02-28T18:25:28;6.65;;;5.03;;